Airfield :
LOGIN :

Register | Disclaimer

   EN    FR    IT 

 










Legend :    VFR   Marginal VFR   IFR   Intensive IFR   Very Intensive IFR
Visi :
Ceiling :
>= 8 km
>= 3000ft
5 to 8 km
1000 to 3000 ft
1500m to 5 km
500 to 1000 ft
800 to 1500m
200 to 500 ft
< 800m
< 200 ft
Symbols :   Thunderstorms  Fog  Heavy snow  Heavy precipitations  Wind > 20 kt
SIGMETs :     Misc.  Thunderstorms  Icing  Turbulence  Mountain Waves  Volcanic Ashes







- Airport Elevation : 39 ft


ETNH - Hohn AB

CURRENT METAR :
  • 142020Z 22007KT 9999 BKN010 BKN030 03/01 Q0987 GRN

EXPIRED METARs :
  • 142012Z 22008KT 9999 FEW008 SCT012 BKN030 03/01 Q0987 BLU
  • 141920Z 23009KT 9999 FEW009 BKN012 BKN040 03/01 Q0987 GRN
  • 141903Z 23011KT 9000 -SHRA FEW009 BKN012TCU 03/01 Q0987 GRN
  • 141843Z 23012KT 9999 FEW009 SCT080 03/01 Q0987 BLU+
  • 141820Z 23012KT 8000 BKN012 BKN060 03/01 Q0987 GRN

TAF TAF ETNH
Valid from the 14 at 18:00 until the 15 at 06:00 UTC


141700Z 1418/1506 21008KT 9999 NSW FEW020 BKN040
TEMPO 1418/1420 23012G22KT 3000 -SHRASN BKN010 BKN020TCU
PROB30 1420/1506 23012G22KT 3000 -SHRASN BKN010 BKN020TCU BY ETGL
No reported NOTAMs for that airfield.



MET'MAP, your aeronautical weather chart ! - Copyright ORBIFLY December 2007 - Disclaimer

ORBIFLY MET'MAP TEAM :

Programming & Development : Alexandra Zaïnal
Concept & Development : Baudouin d'Aumeries
Co-Development & Prog : Marc-Olivier Méhu
Technical & hardware support : Manuel Goepfert

Contact : metmap@orbifly.com




SOURCES & CREDITS :

   NOAA